This is the latest recevied weather packets stored in our database for station/object E27EKO-13. If no packets are shown the sender has not sent any weather packets the latest 10 day(s).
| Time | Temp. | Humidity | Pressure | Rain* | Wind** | Luminosity | Snow |
|---|---|---|---|---|---|---|---|
| 1788112645 | 30.56° C | 94% | 1008 hPa | - | - | 0 W/m² | - |
| 1788112323 | 30° C | 97% | 1008 hPa | - | - | 0 W/m² | - |
| 1788112001 | 30.56° C | 93% | 1008 hPa | - | - | 0 W/m² | - |
| 1788111679 | 30° C | 95% | 1008 hPa | - | - | 0 W/m² | - |
| 1788111357 | 30° C | 93% | 1008 hPa | - | - | 0 W/m² | - |
| 1788111035 | 30° C | 95% | 1008 hPa | - | - | 0 W/m² | - |
| 1788110713 | 30.56° C | 93% | 1008 hPa | - | - | 0 W/m² | - |
| 1788110390 | 30.56° C | 91% | 1008 hPa | - | - | 0 W/m² | - |
| 1788110068 | 30° C | 94% | 1008 hPa | - | - | 0 W/m² | - |
| 1788109904 | 30° C | 94% | 1008 hPa | - | - | 0 W/m² | - |
| 1788109582 | 30.56° C | 93% | 1008 hPa | - | - | 0 W/m² | - |
| 1788109260 | 30° C | 95% | 1008 hPa | - | - | 0 W/m² | - |
| 1788108938 | 30.56° C | 91% | 1008 hPa | - | - | 0 W/m² | - |
| 1788108616 | 31.11° C | 88% | 1008 hPa | - | - | 0 W/m² | - |
| 1788108294 | 30.56° C | 89% | 1008 hPa | - | - | 0 W/m² | - |
| 1788107972 | 30.56° C | 91% | 1008 hPa | - | - | 0 W/m² | - |
| 1788107650 | 30° C | 94% | 1008 hPa | - | - | 0 W/m² | - |
| 1788107328 | 30° C | 97% | 1008 hPa | - | - | 0 W/m² | - |
| 1788107006 | 30° C | 97% | 1008 hPa | - | - | 0 W/m² | - |
| 1788106684 | 30° C | 97% | 1008 hPa | - | - | 0 W/m² | - |
| 1788106362 | 30° C | 95% | 1008 hPa | - | - | 0 W/m² | - |
| 1788106040 | 30.56° C | 91% | 1008 hPa | - | - | 0 W/m² | - |
| 1788105718 | 30.56° C | 91% | 1008 hPa | - | - | 0 W/m² | - |
| 1788098170 | 32.78° C | 73% | 1008 hPa | - | - | 0 W/m² | - |
| 1788097848 | 32.78° C | 73% | 1008 hPa | - | - | 0 W/m² | - |
* Rain since midnight (hover to see other rain measurements)
** Current wind speed in m/s (hover to see current wind gust speed)